LEALLEGE

Guest
Details From LEAL - Alicante
To LEGE - Girona
Flight Number -
Tags decoded
Created
Modified
Stats Distance 357 nm / 660 km
Max Altitude 0 ft / 0 m
Waypoints 6
Social Downloads 0
Likes 0
Share VATSIM

Download

Looking for another format? Having issues loading an existing format? Contact us
Advertisement - Login to hide

Notes

Requested: LEAL SOPET EBROX GEANT KANIG LEGE

Route

LEAL SOPET EBROX GEANT KANIG LEGE

ID Type Via Altitude Latitude Longitude Leg Dist Tot Dist Heading (true) Name
O LEAL APT - 0 ft / 0 m 38.28217˚ -0.55816˚ - 0 nm - Alicante
SOPET FIX - 0 ft / 0 m 39.83384˚ -0.00468˚ 96 nm 96 nm 15° / 16° -
EBROX FIX - 0 ft / 0 m 40.70873˚ 1.23178˚ 77 nm 173 nm 47° / 48° -
GEANT FIX - 0 ft / 0 m 42.43334˚ 2.21642˚ 112 nm 286 nm 23° / 23° -
KANIG FIX - 0 ft / 0 m 42.48031˚ 2.98317˚ 34 nm 320 nm 85° / 86° -
O LEGE APT - 0 ft / 0 m 41.90520˚ 2.76213˚ 35 nm 356 nm 196° / 196° Girona

Altitude Profile

Advertisement - Login to hide

Weather


0- 5 10 15 20 25 30 35+ Temperature / ° C

Clouds and Precipitation
Forecast for 2018-05-22 12:00 UTC. Updated 3 hours ago

Ground ~20,000 ft ~40,000 ft Winds

LEAL

Details ICAO LEAL (ALC)
Name Alicante
Region Spain
Timezone Europe/Madrid (UTC+2.0)
Stats Elevation 141 ft / 43 m (AMSL)
Location 38.282169° -0.558157°
Runways 1
Magnetic Variation 0.232° E

METAR

LEAL 221330Z 15009KT 110V250 9999 FEW045 26/10 Q1013 NOSIG

Decode

TAF

TAF TAF LEAL 221100Z 2212/2312 18012KT 9999 FEW010 TX26/2212Z TN15/2306Z BECMG 2218/2221 VRB04KT BECMG 2310/2312 09010KT

Decode

Departure Runways

ID Width Length Bearing (true) Bearing (mag) Surface Threshold Offset Overrun Length
10 148 ft / 45 m 9,799 ft / 2,987 m 100.07° 99.84° Asphalt 0 ft / 0 m 164 ft / 50 m
28 148 ft / 45 m 9,799 ft / 2,987 m 280.09° 279.86° Asphalt 0 ft / 0 m 197 ft / 60 m

LEGE

Details ICAO LEGE (GRO)
Name Girona
Region Spain
Timezone Europe/Madrid (UTC+2.0)
Stats Elevation 403 ft / 123 m (AMSL)
Location 41.905202° 2.762133°
Runways 1
Magnetic Variation 1.027° E

METAR

LEGE 221330Z 35006KT 260V060 9999 VCTS SCT030CB BKN050 18/13 Q1014

Decode

TAF

TAF LEGE 221100Z 2212/2312 VRB04KT 9999 SCT035 TX25/2213Z TN12/2306Z TEMPO 2212/2217 18010KT PROB40 TEMPO 2212/2219 VRB20G30KT 4000 TSRA SCT030CB PROB40 TEMPO 2300/2306 2000 BR BECMG 2309/2312 18010KT

Decode

Destination Runways

ID Width Length Bearing (true) Bearing (mag) Surface Threshold Offset Overrun Length
02 148 ft / 45 m 7,880 ft / 2,402 m 15.50° 14.47° Asphalt 0 ft / 0 m 210 ft / 64 m
20 148 ft / 45 m 7,880 ft / 2,402 m 195.50° 194.47° Asphalt 0 ft / 0 m 200 ft / 61 m

Approach Navaids

Runway Type Ident Frequency Range Bearing (true) Bearing (mag) Slope Elevation
20 Localiser IGN 109.90 MHz 18 nm / 33 km 195.60° 194.57° - 468 ft / 143 m (AMSL)
20 Glidescope IGN 109.90 MHz 10 nm / 19 km 195.50° 194.47° 3.00° 403 ft / 123 m (AMSL)
20 DME IGN 109.90 MHz 18 nm / 33 km - - - 463 ft / 141 m (AMSL)

Popular Alternatives